createdAt,value
2018-12-31T00:01:45.832Z,6.33
2018-12-31T00:04:16.798Z,7.30
2018-12-31T00:06:47.268Z,11.20
2018-12-31T00:09:18.262Z,8.60
2018-12-31T00:11:48.730Z,9.10
2018-12-31T00:14:19.218Z,6.93
2018-12-31T00:16:49.708Z,7.10
2018-12-31T00:19:20.402Z,9.10
2018-12-31T00:21:51.349Z,9.97
2018-12-31T00:24:21.932Z,7.00
2018-12-31T00:26:52.866Z,5.87
2018-12-31T00:29:23.496Z,10.63
2018-12-31T00:31:54.021Z,8.23
2018-12-31T00:34:25.131Z,9.17
2018-12-31T00:36:55.539Z,7.53
2018-12-31T00:39:26.409Z,7.60
2018-12-31T00:41:57.337Z,9.50
2018-12-31T00:44:27.880Z,7.60
2018-12-31T00:46:58.377Z,8.90
2018-12-31T00:49:28.866Z,9.10
2018-12-31T00:52:00.828Z,7.30
2018-12-31T00:54:31.403Z,7.10
2018-12-31T00:57:02.092Z,8.33
2018-12-31T00:59:32.676Z,9.17
2018-12-31T01:02:03.178Z,7.77
2018-12-31T01:04:33.549Z,7.90
2018-12-31T01:07:04.164Z,9.17
2018-12-31T01:09:34.759Z,7.13
2018-12-31T01:12:05.404Z,5.50
2018-12-31T01:14:36.073Z,5.77
2018-12-31T01:17:07.112Z,5.43
2018-12-31T01:19:37.967Z,8.50
2018-12-31T01:22:08.631Z,5.40
2018-12-31T01:24:40.241Z,4.10
2018-12-31T01:27:11.087Z,5.50
2018-12-31T01:29:41.695Z,5.10
2018-12-31T01:32:12.249Z,5.30
2018-12-31T01:34:42.875Z,4.77
2018-12-31T01:37:13.669Z,8.77
2018-12-31T01:39:44.189Z,7.30
2018-12-31T01:42:15.086Z,7.70
2018-12-31T01:44:45.890Z,5.23
2018-12-31T01:47:16.417Z,8.10
2018-12-31T01:49:46.921Z,5.50
2018-12-31T01:52:17.638Z,6.23
2018-12-31T01:54:48.310Z,6.33
2018-12-31T01:57:19.010Z,8.80
2018-12-31T01:59:49.954Z,7.70
2018-12-31T02:02:20.835Z,7.93
2018-12-31T02:04:51.608Z,9.17
2018-12-31T02:07:22.490Z,7.07
2018-12-31T02:09:53.255Z,7.33
2018-12-31T02:12:23.878Z,8.93
2018-12-31T02:14:54.745Z,9.03
2018-12-31T02:17:26.359Z,11.33
2018-12-31T02:19:57.190Z,12.53
2018-12-31T02:22:27.902Z,8.17
2018-12-31T02:24:58.324Z,9.20
2018-12-31T02:27:28.888Z,8.07
2018-12-31T02:29:59.407Z,7.80
2018-12-31T02:32:30.107Z,6.90
2018-12-31T02:35:00.674Z,13.43
2018-12-31T02:37:31.105Z,5.70
2018-12-31T02:40:01.599Z,12.03
2018-12-31T02:42:32.026Z,8.00
2018-12-31T02:45:02.418Z,10.40
2018-12-31T02:47:32.821Z,8.83
2018-12-31T02:50:03.250Z,9.37
2018-12-31T02:52:33.712Z,7.90
2018-12-31T02:55:04.267Z,12.17
2018-12-31T02:57:34.790Z,9.97
2018-12-31T03:00:06.020Z,9.50
2018-12-31T03:02:36.465Z,9.83
2018-12-31T03:05:07.420Z,10.00
2018-12-31T03:07:37.948Z,10.47
2018-12-31T03:10:08.554Z,12.30
2018-12-31T03:12:39.065Z,11.83
2018-12-31T03:15:09.595Z,10.23
2018-12-31T03:17:40.513Z,8.70
2018-12-31T03:20:11.111Z,10.67
2018-12-31T03:22:41.630Z,10.43
2018-12-31T03:25:12.311Z,10.33
2018-12-31T03:27:42.881Z,9.47
2018-12-31T03:30:13.503Z,10.87
2018-12-31T03:32:44.020Z,12.80
2018-12-31T03:35:14.509Z,11.80
2018-12-31T03:37:44.998Z,12.07
2018-12-31T03:40:15.549Z,8.63
2018-12-31T03:42:46.081Z,10.27
2018-12-31T03:45:16.615Z,12.67
2018-12-31T03:47:47.624Z,12.57
2018-12-31T03:50:18.261Z,16.37
2018-12-31T03:52:48.728Z,13.07
2018-12-31T03:55:19.204Z,12.57
2018-12-31T03:57:49.569Z,10.00
2018-12-31T04:00:20.036Z,14.67
2018-12-31T04:02:50.563Z,15.63
2018-12-31T04:05:20.921Z,16.83
2018-12-31T04:07:53.185Z,16.57
2018-12-31T04:10:23.666Z,14.07
2018-12-31T04:12:54.091Z,14.37
2018-12-31T04:15:24.663Z,16.47
2018-12-31T04:17:55.097Z,20.50
2018-12-31T04:20:25.595Z,14.40
2018-12-31T04:22:56.055Z,18.87
2018-12-31T04:25:26.591Z,13.03
2018-12-31T04:27:56.981Z,16.93
2018-12-31T04:30:27.410Z,15.23
2018-12-31T04:32:57.968Z,28.63
2018-12-31T04:35:28.529Z,17.20
2018-12-31T04:37:59.117Z,17.07
2018-12-31T04:40:29.509Z,16.00
2018-12-31T04:43:00.056Z,14.67
2018-12-31T04:45:30.520Z,20.20
2018-12-31T04:48:01.003Z,15.47
2018-12-31T04:50:31.601Z,17.50
2018-12-31T04:53:02.136Z,17.10
2018-12-31T04:55:32.686Z,16.70
2018-12-31T04:58:03.789Z,18.07
2018-12-31T05:00:34.256Z,17.30
2018-12-31T05:03:04.716Z,21.27
2018-12-31T05:05:35.248Z,23.70
2018-12-31T05:08:05.906Z,20.77
2018-12-31T05:10:36.311Z,20.80
2018-12-31T05:13:06.815Z,17.67
2018-12-31T05:15:37.211Z,23.57
2018-12-31T05:18:07.687Z,18.70
2018-12-31T05:20:38.216Z,23.50
2018-12-31T05:23:08.790Z,21.63
2018-12-31T05:25:39.312Z,23.00
2018-12-31T05:28:09.947Z,21.60
2018-12-31T05:30:40.305Z,20.97
2018-12-31T05:33:10.675Z,18.70
2018-12-31T05:35:41.147Z,19.77
2018-12-31T05:38:11.625Z,25.20
2018-12-31T05:40:42.187Z,19.10
2018-12-31T05:43:12.788Z,17.97
2018-12-31T05:45:43.241Z,19.13
2018-12-31T05:48:13.702Z,17.90
2018-12-31T05:50:44.156Z,27.13
2018-12-31T05:53:15.282Z,14.63
2018-12-31T05:55:45.806Z,17.20
2018-12-31T05:58:16.246Z,24.93
2018-12-31T06:00:46.747Z,16.37
2018-12-31T06:03:17.216Z,23.30
2018-12-31T06:05:47.759Z,25.27
2018-12-31T06:08:18.189Z,16.43
2018-12-31T06:10:49.109Z,17.43
2018-12-31T06:13:19.647Z,18.43
2018-12-31T06:15:50.155Z,21.53
2018-12-31T06:18:20.593Z,18.33
2018-12-31T06:20:51.299Z,15.20
2018-12-31T06:23:21.806Z,17.67
2018-12-31T06:25:52.410Z,16.10
2018-12-31T06:28:23.040Z,15.50
2018-12-31T06:30:53.557Z,22.80
2018-12-31T06:33:24.030Z,19.00
2018-12-31T06:35:54.400Z,16.77
2018-12-31T06:38:24.832Z,21.50
2018-12-31T06:40:55.497Z,62.20
2018-12-31T06:43:27.277Z,56.87
2018-12-31T06:45:57.939Z,27.77
2018-12-31T06:48:28.596Z,39.50
2018-12-31T06:50:59.125Z,43.43
2018-12-31T06:53:30.093Z,45.97
2018-12-31T06:56:00.690Z,68.40
2018-12-31T06:58:31.102Z,113.87
2018-12-31T07:01:01.712Z,84.87
2018-12-31T07:03:32.146Z,65.80
2018-12-31T07:06:02.855Z,36.37
2018-12-31T07:08:33.329Z,31.17
2018-12-31T07:11:04.075Z,37.33
2018-12-31T07:13:34.600Z,20.63
2018-12-31T07:16:05.099Z,25.00
2018-12-31T07:18:35.551Z,23.13
2018-12-31T07:21:06.200Z,28.60
2018-12-31T07:23:36.636Z,19.03
2018-12-31T07:26:07.191Z,34.90
2018-12-31T07:28:37.682Z,56.77
2018-12-31T07:31:08.592Z,103.27
2018-12-31T07:33:39.350Z,70.73
2018-12-31T07:36:09.986Z,73.43
2018-12-31T07:38:40.584Z,67.80
2018-12-31T07:41:11.271Z,47.77
2018-12-31T07:43:42.040Z,30.17
2018-12-31T07:46:12.716Z,29.50
2018-12-31T07:48:43.224Z,34.70
2018-12-31T07:51:13.933Z,31.33
2018-12-31T07:53:44.676Z,29.40
2018-12-31T07:56:15.219Z,22.70
2018-12-31T07:58:45.870Z,16.37
2018-12-31T08:01:16.627Z,22.47
2018-12-31T08:03:47.424Z,23.47
2018-12-31T08:06:18.072Z,23.90
2018-12-31T08:08:48.735Z,22.43
2018-12-31T08:11:19.286Z,17.90
2018-12-31T08:13:49.850Z,19.57
2018-12-31T08:16:20.636Z,26.17
2018-12-31T08:18:51.257Z,22.80
2018-12-31T08:21:21.749Z,15.80
2018-12-31T08:23:52.290Z,35.60
2018-12-31T08:26:23.137Z,19.23
2018-12-31T08:28:53.670Z,20.92
2018-12-31T08:31:25.786Z,17.80
2018-12-31T08:33:59.151Z,22.83
2018-12-31T08:36:29.897Z,29.93
2018-12-31T08:39:00.607Z,29.63
2018-12-31T08:41:31.519Z,25.07
2018-12-31T08:44:02.266Z,26.57
2018-12-31T08:46:33.353Z,18.20
2018-12-31T08:49:04.133Z,17.40
2018-12-31T08:51:34.511Z,21.27
2018-12-31T08:54:09.651Z,22.73
2018-12-31T08:56:40.145Z,18.10
2018-12-31T08:59:10.641Z,22.70
2018-12-31T09:01:41.244Z,46.83
2018-12-31T09:04:11.802Z,39.87
2018-12-31T09:06:42.330Z,42.57
2018-12-31T09:09:12.683Z,18.80
2018-12-31T09:11:43.193Z,30.30
2018-12-31T09:14:14.131Z,22.00
2018-12-31T09:16:44.602Z,17.47
2018-12-31T09:19:15.215Z,20.63
2018-12-31T09:21:45.700Z,15.93
2018-12-31T09:24:16.791Z,16.63
2018-12-31T09:26:47.417Z,26.80
2018-12-31T09:29:18.119Z,29.33
2018-12-31T09:31:49.447Z,49.27
2018-12-31T09:34:19.935Z,25.87
2018-12-31T09:36:51.690Z,27.30
2018-12-31T09:39:22.245Z,20.07
2018-12-31T09:41:53.696Z,20.97
2018-12-31T09:44:24.339Z,12.67
2018-12-31T09:46:54.850Z,17.23
2018-12-31T09:49:25.340Z,15.13
2018-12-31T09:51:55.875Z,28.67
2018-12-31T09:54:26.292Z,20.50
2018-12-31T09:56:59.274Z,20.27
2018-12-31T09:59:29.957Z,29.93
2018-12-31T10:02:00.407Z,18.43
2018-12-31T10:04:30.950Z,15.67
2018-12-31T10:07:01.595Z,20.03
2018-12-31T10:09:32.187Z,29.87
2018-12-31T10:12:02.692Z,37.30
2018-12-31T10:14:33.568Z,28.90
2018-12-31T10:17:04.142Z,50.47
2018-12-31T10:19:34.865Z,59.67
2018-12-31T10:22:05.524Z,63.30
2018-12-31T10:24:36.117Z,47.17
2018-12-31T10:27:06.817Z,20.23
2018-12-31T10:29:37.500Z,18.83
2018-12-31T10:32:08.008Z,20.30
2018-12-31T10:34:38.429Z,19.93
2018-12-31T10:37:08.997Z,26.93
2018-12-31T10:39:39.529Z,26.90
2018-12-31T10:42:09.899Z,45.83
2018-12-31T10:44:40.449Z,50.30
2018-12-31T10:47:11.062Z,37.20
2018-12-31T10:49:41.566Z,34.43
2018-12-31T10:52:12.205Z,41.03
2018-12-31T10:54:42.635Z,22.47
2018-12-31T10:57:13.096Z,23.83
2018-12-31T10:59:43.699Z,28.83
2018-12-31T11:02:14.186Z,24.43
2018-12-31T11:04:44.779Z,26.37
2018-12-31T11:07:15.191Z,16.27
2018-12-31T11:09:45.789Z,14.90
2018-12-31T11:12:16.439Z,21.87
2018-12-31T11:14:46.980Z,21.03
2018-12-31T11:17:17.554Z,19.67
2018-12-31T11:19:48.119Z,18.50
2018-12-31T11:22:18.636Z,21.07
2018-12-31T11:24:49.225Z,22.13
2018-12-31T11:27:19.775Z,20.33
2018-12-31T11:29:50.249Z,24.33
2018-12-31T11:32:20.811Z,24.00
2018-12-31T11:34:51.341Z,23.00
2018-12-31T11:37:21.984Z,21.03
2018-12-31T11:39:52.559Z,22.33
2018-12-31T11:42:23.206Z,21.70
2018-12-31T11:44:53.630Z,18.27
2018-12-31T11:47:24.308Z,17.67
2018-12-31T11:49:55.116Z,22.07
2018-12-31T11:52:25.768Z,22.70
2018-12-31T11:54:56.251Z,28.70
2018-12-31T11:57:26.846Z,24.80
2018-12-31T11:59:57.431Z,23.87
2018-12-31T12:02:28.016Z,21.77
2018-12-31T12:04:58.706Z,22.50
2018-12-31T12:07:29.207Z,28.40
2018-12-31T12:09:59.791Z,21.83
2018-12-31T12:12:30.769Z,19.63
2018-12-31T12:15:01.436Z,21.90
2018-12-31T12:17:32.045Z,18.53
2018-12-31T12:20:02.648Z,20.70
2018-12-31T12:22:33.681Z,25.33
2018-12-31T12:25:04.409Z,22.83
2018-12-31T12:27:35.457Z,20.33
2018-12-31T12:30:07.582Z,21.60
2018-12-31T12:32:38.137Z,22.63
2018-12-31T12:35:08.747Z,22.43
2018-12-31T12:37:39.226Z,21.57
2018-12-31T12:40:09.931Z,26.03
2018-12-31T12:42:40.537Z,26.93
2018-12-31T12:45:11.087Z,22.87
2018-12-31T12:47:41.793Z,17.53
2018-12-31T12:50:12.426Z,20.80
2018-12-31T12:52:43.021Z,21.93
2018-12-31T12:55:13.926Z,26.53
2018-12-31T12:57:44.551Z,25.00
2018-12-31T13:00:15.217Z,32.47
2018-12-31T13:02:46.950Z,28.77
2018-12-31T13:05:17.816Z,34.77
2018-12-31T13:07:48.351Z,27.53
2018-12-31T13:10:19.159Z,46.83
2018-12-31T13:12:50.075Z,27.07
2018-12-31T13:15:20.650Z,27.10
2018-12-31T13:17:51.857Z,40.63
2018-12-31T13:20:22.525Z,46.47
2018-12-31T13:22:53.287Z,48.00
2018-12-31T13:25:23.855Z,29.23
2018-12-31T13:27:54.465Z,42.10
2018-12-31T13:30:25.257Z,64.00
2018-12-31T13:32:55.887Z,66.37
2018-12-31T13:35:26.496Z,71.10
2018-12-31T13:37:57.116Z,38.93
2018-12-31T13:40:27.571Z,42.73
2018-12-31T13:42:58.172Z,44.80
2018-12-31T13:45:28.919Z,52.80
2018-12-31T13:47:59.714Z,47.27
2018-12-31T13:50:31.886Z,28.77
2018-12-31T13:53:02.609Z,37.87
2018-12-31T13:55:33.130Z,29.43
2018-12-31T13:58:03.552Z,26.43
2018-12-31T14:00:34.232Z,44.50
2018-12-31T14:03:04.764Z,24.60
2018-12-31T14:05:35.375Z,25.87
2018-12-31T14:08:06.056Z,31.70
2018-12-31T14:10:36.748Z,34.17
2018-12-31T14:13:07.582Z,30.87
2018-12-31T14:15:38.198Z,33.07
2018-12-31T14:18:08.727Z,30.17
2018-12-31T14:20:39.356Z,27.67
2018-12-31T14:23:09.967Z,27.87
2018-12-31T14:25:40.582Z,38.53
2018-12-31T14:28:11.262Z,36.60
2018-12-31T14:30:41.934Z,32.10
2018-12-31T14:33:12.646Z,33.07
2018-12-31T14:35:45.865Z,39.20
2018-12-31T14:38:15.707Z,58.20
2018-12-31T14:40:46.477Z,44.70
2018-12-31T14:43:17.166Z,59.37
2018-12-31T14:45:48.260Z,55.63
2018-12-31T14:48:18.916Z,42.40
2018-12-31T14:50:49.640Z,37.10
2018-12-31T14:53:20.135Z,33.40
2018-12-31T14:55:50.846Z,33.43
2018-12-31T14:58:21.309Z,41.50
2018-12-31T15:00:51.926Z,37.33
2018-12-31T15:03:22.541Z,83.53
2018-12-31T15:05:53.201Z,86.07
2018-12-31T15:08:24.087Z,78.23
2018-12-31T15:10:54.625Z,75.73
2018-12-31T15:13:25.283Z,74.90
2018-12-31T15:15:56.955Z,101.93
2018-12-31T15:18:27.579Z,133.83
2018-12-31T15:20:58.132Z,185.60
2018-12-31T15:23:28.672Z,113.53
2018-12-31T15:25:59.183Z,42.67
2018-12-31T15:28:29.624Z,27.93
2018-12-31T15:31:00.322Z,35.93
2018-12-31T15:33:30.849Z,34.23
2018-12-31T15:36:01.523Z,35.83
2018-12-31T15:38:32.097Z,32.93
2018-12-31T15:41:02.740Z,32.53
2018-12-31T15:43:33.342Z,35.90
2018-12-31T15:46:03.947Z,37.27
2018-12-31T15:48:34.586Z,35.77
2018-12-31T15:51:05.242Z,34.97
2018-12-31T15:53:35.950Z,40.00
2018-12-31T15:56:06.479Z,38.03
2018-12-31T15:58:37.239Z,36.63
2018-12-31T16:01:07.937Z,32.93
2018-12-31T16:03:38.455Z,36.47
2018-12-31T16:06:09.016Z,34.60
2018-12-31T16:08:39.679Z,30.73
2018-12-31T16:11:10.230Z,35.27
2018-12-31T16:13:40.791Z,38.60
2018-12-31T16:16:11.434Z,30.87
2018-12-31T16:18:42.115Z,30.35
2018-12-31T16:21:12.663Z,30.57
2018-12-31T16:23:43.272Z,28.07
2018-12-31T16:26:13.719Z,29.63
2018-12-31T16:28:44.134Z,29.63
2018-12-31T16:31:14.786Z,26.47
2018-12-31T16:33:45.398Z,28.27
2018-12-31T16:36:16.076Z,31.37
2018-12-31T16:38:47.810Z,49.83
2018-12-31T16:41:18.562Z,65.50
2018-12-31T16:43:49.297Z,51.77
2018-12-31T16:46:20.022Z,42.63
2018-12-31T16:48:50.706Z,50.80
2018-12-31T16:51:21.415Z,28.07
2018-12-31T16:53:52.203Z,22.93
2018-12-31T16:56:22.819Z,26.83
2018-12-31T16:58:53.572Z,24.27
2018-12-31T17:01:24.269Z,20.77
2018-12-31T17:03:56.247Z,19.97
2018-12-31T17:06:27.023Z,18.10
2018-12-31T17:08:58.181Z,21.23
2018-12-31T17:11:28.789Z,27.27
2018-12-31T17:13:59.301Z,25.27
2018-12-31T17:16:29.896Z,22.17
2018-12-31T17:19:00.399Z,22.47
2018-12-31T17:21:31.988Z,19.97
2018-12-31T17:24:02.906Z,20.23
2018-12-31T17:26:33.896Z,24.10
2018-12-31T17:29:04.687Z,22.87
2018-12-31T17:31:35.186Z,31.90
2018-12-31T17:34:05.889Z,28.07
2018-12-31T17:36:36.507Z,23.97
2018-12-31T17:39:10.402Z,26.80
2018-12-31T17:41:40.924Z,32.77
2018-12-31T17:44:12.036Z,31.67
2018-12-31T17:46:42.833Z,33.30
2018-12-31T17:49:13.495Z,29.53
2018-12-31T17:51:44.061Z,27.00
2018-12-31T17:54:14.851Z,30.10
2018-12-31T17:56:45.816Z,32.57
2018-12-31T17:59:16.707Z,28.03
2018-12-31T18:01:47.456Z,36.27
2018-12-31T18:04:18.032Z,31.03
2018-12-31T18:06:48.736Z,36.47
2018-12-31T18:09:19.492Z,35.93
2018-12-31T18:11:50.030Z,34.83
2018-12-31T18:14:20.659Z,35.17
2018-12-31T18:16:51.089Z,33.53
2018-12-31T18:19:21.722Z,31.93
2018-12-31T18:21:52.262Z,35.37
2018-12-31T18:24:22.868Z,29.97
2018-12-31T18:26:53.385Z,45.90
2018-12-31T18:29:24.116Z,37.57
2018-12-31T18:31:54.916Z,32.20
2018-12-31T18:34:25.624Z,26.47
2018-12-31T18:36:56.123Z,30.57
2018-12-31T18:39:26.688Z,31.40
2018-12-31T18:41:57.680Z,30.00
2018-12-31T18:44:28.219Z,31.13
2018-12-31T18:46:58.821Z,26.47
2018-12-31T18:49:29.411Z,28.40
2018-12-31T18:52:01.571Z,31.83
2018-12-31T18:54:32.193Z,25.77
2018-12-31T18:57:02.797Z,33.27
2018-12-31T18:59:33.373Z,29.10
2018-12-31T19:02:03.928Z,33.17
2018-12-31T19:04:34.772Z,34.23
2018-12-31T19:07:05.312Z,29.97
2018-12-31T19:09:36.006Z,33.77
2018-12-31T19:12:06.676Z,30.93
2018-12-31T19:14:37.324Z,29.30
2018-12-31T19:17:07.998Z,32.60
2018-12-31T19:19:38.406Z,28.70
2018-12-31T19:22:09.082Z,30.90
2018-12-31T19:24:39.717Z,36.10
2018-12-31T19:27:10.263Z,32.57
2018-12-31T19:29:40.836Z,35.80
2018-12-31T19:32:11.410Z,36.70
2018-12-31T19:34:42.016Z,39.10
2018-12-31T19:37:12.619Z,41.00
2018-12-31T19:39:43.554Z,44.00
2018-12-31T19:42:14.035Z,50.83
2018-12-31T19:44:45.158Z,58.87
2018-12-31T19:47:15.682Z,72.60
2018-12-31T19:49:46.239Z,84.60
2018-12-31T19:52:17.325Z,90.93
2018-12-31T19:54:47.929Z,111.10
2018-12-31T19:57:18.776Z,107.00
2018-12-31T19:59:49.499Z,99.07
2018-12-31T20:02:20.547Z,116.90
2018-12-31T20:04:51.084Z,115.63
2018-12-31T20:07:21.737Z,146.00
2018-12-31T20:09:52.236Z,154.77
2018-12-31T20:12:22.756Z,162.37
2018-12-31T20:14:53.231Z,161.83
2018-12-31T20:17:23.924Z,167.33
2018-12-31T20:19:55.435Z,161.47
2018-12-31T20:22:25.983Z,166.97
2018-12-31T20:24:56.651Z,171.67
2018-12-31T20:27:27.122Z,154.50
2018-12-31T20:29:57.930Z,151.13
2018-12-31T20:32:28.872Z,149.10
2018-12-31T20:34:59.584Z,135.43
2018-12-31T20:37:30.157Z,140.27
2018-12-31T20:40:00.912Z,143.00
2018-12-31T20:42:31.734Z,145.20
2018-12-31T20:45:02.329Z,149.40
2018-12-31T20:47:32.794Z,157.50
2018-12-31T20:50:04.066Z,147.03
2018-12-31T20:52:36.396Z,147.63
2018-12-31T20:55:07.110Z,134.57
2018-12-31T20:57:37.820Z,142.50
2018-12-31T21:00:09.326Z,131.23
2018-12-31T21:02:39.869Z,129.77
2018-12-31T21:05:11.514Z,130.60
2018-12-31T21:07:42.529Z,131.70
2018-12-31T21:10:13.614Z,118.83
2018-12-31T21:12:44.227Z,120.87
2018-12-31T21:15:16.333Z,129.93
2018-12-31T21:17:47.037Z,119.60
2018-12-31T21:20:17.667Z,112.23
2018-12-31T21:22:48.436Z,111.70
2018-12-31T21:25:18.960Z,109.83
2018-12-31T21:27:49.655Z,106.83
2018-12-31T21:30:20.322Z,103.87
2018-12-31T21:32:51.072Z,115.53
2018-12-31T21:35:21.942Z,113.80
2018-12-31T21:37:52.491Z,110.37
2018-12-31T21:40:23.164Z,119.70
2018-12-31T21:42:53.911Z,138.93
2018-12-31T21:45:24.557Z,145.93
2018-12-31T21:47:55.496Z,147.87
2018-12-31T21:50:26.209Z,141.47
2018-12-31T21:52:56.831Z,136.93
2018-12-31T21:55:27.374Z,120.37
2018-12-31T21:57:58.122Z,118.03
2018-12-31T22:00:28.496Z,119.00
2018-12-31T22:02:59.101Z,107.60
2018-12-31T22:05:29.726Z,113.53
2018-12-31T22:08:00.442Z,109.30
2018-12-31T22:10:31.112Z,120.90
2018-12-31T22:13:01.680Z,121.87
2018-12-31T22:15:32.727Z,116.03
2018-12-31T22:18:03.432Z,123.97
2018-12-31T22:20:34.051Z,133.03
2018-12-31T22:23:05.008Z,144.90
2018-12-31T22:25:35.547Z,139.57
2018-12-31T22:28:06.162Z,134.30
2018-12-31T22:30:36.832Z,133.43
2018-12-31T22:33:07.321Z,125.13
2018-12-31T22:35:38.012Z,127.63
2018-12-31T22:38:08.562Z,112.40
2018-12-31T22:40:39.079Z,126.03
2018-12-31T22:43:09.671Z,111.93
2018-12-31T22:45:40.397Z,129.37
2018-12-31T22:48:11.073Z,122.80
2018-12-31T22:50:41.654Z,127.70
2018-12-31T22:53:12.637Z,129.40
2018-12-31T22:55:43.267Z,116.77
2018-12-31T22:58:13.837Z,109.37
2018-12-31T23:00:44.605Z,123.20
2018-12-31T23:03:15.011Z,110.40
2018-12-31T23:05:45.647Z,110.00
2018-12-31T23:08:16.669Z,99.77
2018-12-31T23:10:47.240Z,108.03
2018-12-31T23:13:18.062Z,109.93
2018-12-31T23:15:48.809Z,98.50
2018-12-31T23:18:19.325Z,101.33
2018-12-31T23:20:49.881Z,102.80
2018-12-31T23:23:21.327Z,118.20
2018-12-31T23:25:52.039Z,131.80
2018-12-31T23:28:22.639Z,140.07
2018-12-31T23:30:53.242Z,148.20
2018-12-31T23:33:23.659Z,202.33
2018-12-31T23:35:54.349Z,246.87
2018-12-31T23:38:25.263Z,231.97
2018-12-31T23:40:55.948Z,300.80
2018-12-31T23:43:27.325Z,306.60
2018-12-31T23:45:58.075Z,276.60
2018-12-31T23:48:28.647Z,254.10
2018-12-31T23:50:59.205Z,258.30
2018-12-31T23:53:30.013Z,264.17
2018-12-31T23:56:00.594Z,272.63
2018-12-31T23:58:31.397Z,256.87
